sensor_id;sensor_type;location;lat;lon;timestamp;pressure;altitude;pressure_sealevel;temperature;humidity
30724;BME280;17473;52.286;20.930;2022-10-26T00:01:12;100428.53;;;13.20;100.00
30724;BME280;17473;52.286;20.930;2022-10-26T00:03:42;100428.41;;;13.15;100.00
30724;BME280;17473;52.286;20.930;2022-10-26T00:06:16;100431.19;;;13.20;100.00
30724;BME280;17473;52.286;20.930;2022-10-26T00:08:44;100422.44;;;13.24;100.00
30724;BME280;17473;52.286;20.930;2022-10-26T00:11:11;100429.25;;;13.13;100.00
30724;BME280;17473;52.286;20.930;2022-10-26T00:13:40;100433.94;;;13.25;100.00
30724;BME280;17473;52.286;20.930;2022-10-26T00:16:13;100420.44;;;13.14;100.00
30724;BME280;17473;52.286;20.930;2022-10-26T00:18:41;100439.44;;;13.33;100.00
30724;BME280;17473;52.286;20.930;2022-10-26T00:21:09;100435.72;;;13.24;100.00
30724;BME280;17473;52.286;20.930;2022-10-26T00:23:37;100435.84;;;13.30;100.00
30724;BME280;17473;52.286;20.930;2022-10-26T00:26:05;100438.13;;;13.15;100.00
30724;BME280;17473;52.286;20.930;2022-10-26T00:28:32;100426.63;;;13.14;100.00
30724;BME280;17473;52.286;20.930;2022-10-26T00:31:02;100433.50;;;13.06;100.00
30724;BME280;17473;52.286;20.930;2022-10-26T00:33:30;100436.44;;;13.17;100.00
30724;BME280;17473;52.286;20.930;2022-10-26T00:35:58;100436.66;;;13.28;100.00
30724;BME280;17473;52.286;20.930;2022-10-26T00:38:25;100436.59;;;13.25;100.00
30724;BME280;17473;52.286;20.930;2022-10-26T00:40:52;100440.03;;;13.21;100.00
30724;BME280;17473;52.286;20.930;2022-10-26T00:45:51;100433.94;;;13.25;100.00
30724;BME280;17473;52.286;20.930;2022-10-26T00:48:35;100438.16;;;13.17;100.00
30724;BME280;17473;52.286;20.930;2022-10-26T00:51:34;100436.47;;;13.20;100.00
30724;BME280;17473;52.286;20.930;2022-10-26T00:54:06;100439.22;;;13.23;100.00
30724;BME280;17473;52.286;20.930;2022-10-26T00:56:34;100432.97;;;13.21;100.00
30724;BME280;17473;52.286;20.930;2022-10-26T00:59:05;100440.94;;;13.23;100.00
30724;BME280;17473;52.286;20.930;2022-10-26T01:01:35;100435.53;;;13.18;100.00
30724;BME280;17473;52.286;20.930;2022-10-26T01:04:03;100431.03;;;13.14;100.00
30724;BME280;17473;52.286;20.930;2022-10-26T01:06:32;100436.66;;;13.26;100.00
30724;BME280;17473;52.286;20.930;2022-10-26T01:09:01;100442.63;;;13.19;100.00
30724;BME280;17473;52.286;20.930;2022-10-26T01:11:28;100438.28;;;13.21;100.00
30724;BME280;17473;52.286;20.930;2022-10-26T01:13:57;100437.34;;;13.19;100.00
30724;BME280;17473;52.286;20.930;2022-10-26T01:23:02;100448.88;;;13.21;100.00
30724;BME280;17473;52.286;20.930;2022-10-26T01:25:58;100447.03;;;13.17;100.00
30724;BME280;17473;52.286;20.930;2022-10-26T01:31:43;100442.97;;;13.33;100.00
30724;BME280;17473;52.286;20.930;2022-10-26T01:34:23;100448.97;;;13.24;100.00
30724;BME280;17473;52.286;20.930;2022-10-26T01:37:01;100444.31;;;13.15;100.00
30724;BME280;17473;52.286;20.930;2022-10-26T01:39:40;100444.38;;;13.17;100.00
30724;BME280;17473;52.286;20.930;2022-10-26T01:42:11;100452.34;;;13.19;100.00
30724;BME280;17473;52.286;20.930;2022-10-26T01:44:53;100444.28;;;13.14;100.00
30724;BME280;17473;52.286;20.930;2022-10-26T01:47:23;100450.44;;;13.13;100.00
30724;BME280;17473;52.286;20.930;2022-10-26T01:49:54;100448.75;;;13.17;100.00
30724;BME280;17473;52.286;20.930;2022-10-26T01:52:22;100449.81;;;13.23;100.00
30724;BME280;17473;52.286;20.930;2022-10-26T01:54:49;100450.59;;;13.19;100.00
30724;BME280;17473;52.286;20.930;2022-10-26T01:57:20;100460.31;;;13.19;100.00
30724;BME280;17473;52.286;20.930;2022-10-26T02:03:11;100448.69;;;13.13;100.00
30724;BME280;17473;52.286;20.930;2022-10-26T02:06:05;100450.75;;;13.25;100.00
30724;BME280;17473;52.286;20.930;2022-10-26T02:09:10;100448.66;;;13.12;100.00
30724;BME280;17473;52.286;20.930;2022-10-26T02:11:46;100463.00;;;13.20;100.00
30724;BME280;17473;52.286;20.930;2022-10-26T02:14:46;100459.34;;;13.15;100.00
30724;BME280;17473;52.286;20.930;2022-10-26T02:17:37;100465.47;;;13.12;100.00
30724;BME280;17473;52.286;20.930;2022-10-26T02:20:17;100462.81;;;13.12;100.00
30724;BME280;17473;52.286;20.930;2022-10-26T02:22:50;100474.44;;;13.19;100.00
30724;BME280;17473;52.286;20.930;2022-10-26T02:25:27;100467.22;;;13.12;100.00
30724;BME280;17473;52.286;20.930;2022-10-26T02:28:06;100466.97;;;13.03;100.00
30724;BME280;17473;52.286;20.930;2022-10-26T02:30:34;100472.38;;;13.06;100.00
30724;BME280;17473;52.286;20.930;2022-10-26T02:33:02;100475.06;;;13.07;100.00
30724;BME280;17473;52.286;20.930;2022-10-26T02:35:34;100472.41;;;13.07;100.00
30724;BME280;17473;52.286;20.930;2022-10-26T02:38:06;100468.75;;;13.02;100.00
30724;BME280;17473;52.286;20.930;2022-10-26T02:40:35;100471.44;;;13.04;100.00
30724;BME280;17473;52.286;20.930;2022-10-26T02:43:13;100462.81;;;13.12;100.00
30724;BME280;17473;52.286;20.930;2022-10-26T02:45:48;100457.28;;;13.03;100.00
30724;BME280;17473;52.286;20.930;2022-10-26T02:48:18;100468.91;;;13.10;100.00
30724;BME280;17473;52.286;20.930;2022-10-26T02:53:58;100476.81;;;13.07;100.00
30724;BME280;17473;52.286;20.930;2022-10-26T02:56:36;100480.31;;;13.06;100.00
30724;BME280;17473;52.286;20.930;2022-10-26T02:59:08;100484.81;;;13.08;100.00
30724;BME280;17473;52.286;20.930;2022-10-26T03:01:39;100483.09;;;13.10;100.00
30724;BME280;17473;52.286;20.930;2022-10-26T03:04:07;100480.50;;;13.13;100.00
30724;BME280;17473;52.286;20.930;2022-10-26T03:06:34;100483.94;;;13.09;100.00
30724;BME280;17473;52.286;20.930;2022-10-26T03:09:01;100488.41;;;13.12;100.00
30724;BME280;17473;52.286;20.930;2022-10-26T03:11:28;100493.47;;;13.01;100.00
30724;BME280;17473;52.286;20.930;2022-10-26T03:13:55;100497.16;;;13.08;100.00
30724;BME280;17473;52.286;20.930;2022-10-26T03:16:22;100497.94;;;13.04;100.00
30724;BME280;17473;52.286;20.930;2022-10-26T03:18:49;100499.94;;;13.12;100.00
30724;BME280;17473;52.286;20.930;2022-10-26T03:21:16;100505.16;;;13.09;100.00
30724;BME280;17473;52.286;20.930;2022-10-26T03:23:43;100511.31;;;13.08;100.00
30724;BME280;17473;52.286;20.930;2022-10-26T03:26:12;100509.47;;;13.06;100.00
30724;BME280;17473;52.286;20.930;2022-10-26T03:28:38;100517.72;;;13.18;100.00
30724;BME280;17473;52.286;20.930;2022-10-26T03:31:06;100511.28;;;13.07;100.00
30724;BME280;17473;52.286;20.930;2022-10-26T03:33:33;100510.44;;;13.09;100.00
30724;BME280;17473;52.286;20.930;2022-10-26T03:36:00;100513.25;;;13.15;100.00
30724;BME280;17473;52.286;20.930;2022-10-26T03:38:27;100520.84;;;13.02;100.00
30724;BME280;17473;52.286;20.930;2022-10-26T03:40:54;100513.75;;;13.00;100.00
30724;BME280;17473;52.286;20.930;2022-10-26T03:43:21;100512.00;;;13.01;100.00
30724;BME280;17473;52.286;20.930;2022-10-26T03:45:48;100522.63;;;13.01;100.00
30724;BME280;17473;52.286;20.930;2022-10-26T03:48:15;100521.69;;;13.00;100.00
30724;BME280;17473;52.286;20.930;2022-10-26T03:50:42;100527.13;;;13.05;100.00
30724;BME280;17473;52.286;20.930;2022-10-26T03:53:09;100529.63;;;12.99;100.00
30724;BME280;17473;52.286;20.930;2022-10-26T03:55:36;100528.69;;;12.97;100.00
30724;BME280;17473;52.286;20.930;2022-10-26T03:58:03;100529.63;;;12.99;100.00
30724;BME280;17473;52.286;20.930;2022-10-26T04:00:30;100528.63;;;12.94;100.00
30724;BME280;17473;52.286;20.930;2022-10-26T04:02:58;100528.75;;;12.98;100.00
30724;BME280;17473;52.286;20.930;2022-10-26T04:05:28;100522.59;;;12.99;100.00
30724;BME280;17473;52.286;20.930;2022-10-26T04:07:57;100528.53;;;12.91;100.00
30724;BME280;17473;52.286;20.930;2022-10-26T04:10:25;100528.00;;;13.04;100.00
30724;BME280;17473;52.286;20.930;2022-10-26T04:12:54;100525.44;;;13.09;100.00
30724;BME280;17473;52.286;20.930;2022-10-26T04:15:21;100530.59;;;13.03;100.00
30724;BME280;17473;52.286;20.930;2022-10-26T04:17:56;100538.53;;;13.03;100.00
30724;BME280;17473;52.286;20.930;2022-10-26T04:20:25;100535.75;;;12.96;100.00
30724;BME280;17473;52.286;20.930;2022-10-26T04:23:00;100532.00;;;12.88;100.00
30724;BME280;17473;52.286;20.930;2022-10-26T04:25:29;100532.38;;;13.02;100.00
30724;BME280;17473;52.286;20.930;2022-10-26T04:28:00;100533.69;;;13.20;100.00
30724;BME280;17473;52.286;20.930;2022-10-26T04:30:28;100541.91;;;13.30;100.00
30724;BME280;17473;52.286;20.930;2022-10-26T04:32:55;100541.19;;;13.03;100.00
30724;BME280;17473;52.286;20.930;2022-10-26T04:35:22;100535.03;;;13.04;100.00
30724;BME280;17473;52.286;20.930;2022-10-26T04:37:49;100538.03;;;13.16;100.00
30724;BME280;17473;52.286;20.930;2022-10-26T04:40:16;100544.81;;;13.06;100.00
30724;BME280;17473;52.286;20.930;2022-10-26T04:42:46;100543.56;;;12.92;100.00
30724;BME280;17473;52.286;20.930;2022-10-26T04:45:15;100552.47;;;12.94;100.00
30724;BME280;17473;52.286;20.930;2022-10-26T04:47:43;100543.59;;;12.93;100.00
30724;BME280;17473;52.286;20.930;2022-10-26T04:50:12;100548.97;;;12.95;100.00
30724;BME280;17473;52.286;20.930;2022-10-26T04:52:39;100554.28;;;12.96;100.00
30724;BME280;17473;52.286;20.930;2022-10-26T04:55:07;100554.41;;;13.35;100.00
30724;BME280;17473;52.286;20.930;2022-10-26T04:57:34;100565.63;;;13.24;100.00
30724;BME280;17473;52.286;20.930;2022-10-26T05:00:03;100564.41;;;13.11;100.00
30724;BME280;17473;52.286;20.930;2022-10-26T05:02:31;100566.97;;;13.08;100.00
30724;BME280;17473;52.286;20.930;2022-10-26T05:04:58;100565.81;;;13.32;100.00
30724;BME280;17473;52.286;20.930;2022-10-26T05:07:25;100567.84;;;13.09;100.00
30724;BME280;17473;52.286;20.930;2022-10-26T05:09:52;100568.56;;;13.02;100.00
30724;BME280;17473;52.286;20.930;2022-10-26T05:12:19;100570.97;;;12.92;100.00
30724;BME280;17473;52.286;20.930;2022-10-26T05:14:46;100580.44;;;12.84;100.00
30724;BME280;17473;52.286;20.930;2022-10-26T05:17:13;100580.81;;;12.96;100.00
30724;BME280;17473;52.286;20.930;2022-10-26T05:19:40;100578.06;;;12.93;100.00
30724;BME280;17473;52.286;20.930;2022-10-26T05:22:07;100588.91;;;13.03;100.00
30724;BME280;17473;52.286;20.930;2022-10-26T05:24:34;100587.06;;;12.98;100.00
30724;BME280;17473;52.286;20.930;2022-10-26T05:27:01;100590.44;;;12.93;100.00
30724;BME280;17473;52.286;20.930;2022-10-26T05:29:28;100599.84;;;12.83;100.00
30724;BME280;17473;52.286;20.930;2022-10-26T05:31:55;100600.19;;;12.94;100.00
30724;BME280;17473;52.286;20.930;2022-10-26T05:34:22;100587.00;;;12.97;100.00
30724;BME280;17473;52.286;20.930;2022-10-26T05:36:51;100606.47;;;12.97;100.00
30724;BME280;17473;52.286;20.930;2022-10-26T05:39:19;100590.50;;;12.96;100.00
30724;BME280;17473;52.286;20.930;2022-10-26T05:41:47;100601.34;;;13.05;100.00
30724;BME280;17473;52.286;20.930;2022-10-26T05:44:13;100606.75;;;13.08;100.00
30724;BME280;17473;52.286;20.930;2022-10-26T05:46:41;100604.19;;;13.11;100.00
30724;BME280;17473;52.286;20.930;2022-10-26T05:49:08;100606.72;;;13.07;100.00
30724;BME280;17473;52.286;20.930;2022-10-26T05:51:35;100611.81;;;13.00;100.00
30724;BME280;17473;52.286;20.930;2022-10-26T05:54:03;100615.34;;;12.99;100.00
30724;BME280;17473;52.286;20.930;2022-10-26T05:56:38;100615.34;;;12.99;100.00
30724;BME280;17473;52.286;20.930;2022-10-26T05:59:12;100614.47;;;13.00;100.00
30724;BME280;17473;52.286;20.930;2022-10-26T06:02:18;100616.97;;;12.94;100.00
30724;BME280;17473;52.286;20.930;2022-10-26T06:04:52;100616.22;;;12.98;100.00
30724;BME280;17473;52.286;20.930;2022-10-26T06:07:22;100615.34;;;12.99;100.00
30724;BME280;17473;52.286;20.930;2022-10-26T06:09:49;100613.75;;;13.06;100.00
30724;BME280;17473;52.286;20.930;2022-10-26T06:12:17;100624.44;;;13.09;100.00
30724;BME280;17473;52.286;20.930;2022-10-26T06:14:46;100620.16;;;13.14;100.00
30724;BME280;17473;52.286;20.930;2022-10-26T06:20:41;100629.19;;;13.21;100.00
30724;BME280;17473;52.286;20.930;2022-10-26T06:29:00;100632.75;;;13.22;100.00
30724;BME280;17473;52.286;20.930;2022-10-26T06:31:29;100640.97;;;13.33;100.00
30724;BME280;17473;52.286;20.930;2022-10-26T06:33:58;100634.72;;;13.30;100.00
30724;BME280;17473;52.286;20.930;2022-10-26T06:36:27;100643.59;;;13.31;100.00
30724;BME280;17473;52.286;20.930;2022-10-26T06:39:06;100644.72;;;13.39;100.00
30724;BME280;17473;52.286;20.930;2022-10-26T06:41:35;100653.84;;;13.19;100.00
30724;BME280;17473;52.286;20.930;2022-10-26T06:44:03;100652.47;;;13.33;100.00
30724;BME280;17473;52.286;20.930;2022-10-26T06:47:06;100663.91;;;13.30;100.00
30724;BME280;17473;52.286;20.930;2022-10-26T06:50:00;100656.66;;;13.25;100.00
30724;BME280;17473;52.286;20.930;2022-10-26T06:52:34;100656.34;;;13.44;100.00
30724;BME280;17473;52.286;20.930;2022-10-26T06:55:03;100649.56;;;13.56;100.00
30724;BME280;17473;52.286;20.930;2022-10-26T06:57:35;100654.19;;;13.65;100.00
30724;BME280;17473;52.286;20.930;2022-10-26T07:00:20;100655.00;;;13.60;99.96
30724;BME280;17473;52.286;20.930;2022-10-26T07:02:48;100663.53;;;13.84;98.39
30724;BME280;17473;52.286;20.930;2022-10-26T07:05:16;100664.09;;;13.72;97.91
30724;BME280;17473;52.286;20.930;2022-10-26T07:07:46;100670.47;;;13.78;96.68
30724;BME280;17473;52.286;20.930;2022-10-26T07:10:14;100665.91;;;13.73;97.45
30724;BME280;17473;52.286;20.930;2022-10-26T07:12:41;100662.84;;;13.56;97.82
30724;BME280;17473;52.286;20.930;2022-10-26T07:15:09;100669.72;;;13.49;98.05
30724;BME280;17473;52.286;20.930;2022-10-26T07:17:47;100664.69;;;13.60;97.25
30724;BME280;17473;52.286;20.930;2022-10-26T07:20:19;100670.25;;;13.69;97.36
30724;BME280;17473;52.286;20.930;2022-10-26T07:22:54;100668.25;;;13.60;97.59
30724;BME280;17473;52.286;20.930;2022-10-26T07:25:23;100674.66;;;13.69;97.69
30724;BME280;17473;52.286;20.930;2022-10-26T07:27:51;100676.94;;;13.53;97.96
30724;BME280;17473;52.286;20.930;2022-10-26T07:30:18;100682.34;;;13.58;98.16
30724;BME280;17473;52.286;20.930;2022-10-26T07:32:45;100676.00;;;13.53;98.93
30724;BME280;17473;52.286;20.930;2022-10-26T07:35:12;100679.09;;;13.38;98.80
30724;BME280;17473;52.286;20.930;2022-10-26T07:37:40;100680.09;;;13.73;96.71
30724;BME280;17473;52.286;20.930;2022-10-26T07:40:07;100681.91;;;13.76;96.75
30724;BME280;17473;52.286;20.930;2022-10-26T07:42:34;100672.31;;;13.81;95.63
30724;BME280;17473;52.286;20.930;2022-10-26T07:45:03;100679.47;;;13.84;95.11
30724;BME280;17473;52.286;20.930;2022-10-26T07:47:30;100681.69;;;13.67;95.93
30724;BME280;17473;52.286;20.930;2022-10-26T07:49:57;100682.13;;;13.50;95.93
30724;BME280;17473;52.286;20.930;2022-10-26T07:52:24;100687.69;;;13.59;95.43
30724;BME280;17473;52.286;20.930;2022-10-26T07:54:51;100685.78;;;13.55;95.15
30724;BME280;17473;52.286;20.930;2022-10-26T07:57:18;100689.28;;;13.53;95.82
30724;BME280;17473;52.286;20.930;2022-10-26T07:59:45;100697.63;;;13.68;94.71
30724;BME280;17473;52.286;20.930;2022-10-26T08:02:12;100700.63;;;13.47;96.07
30724;BME280;17473;52.286;20.930;2022-10-26T08:04:39;100702.97;;;13.38;96.36
30724;BME280;17473;52.286;20.930;2022-10-26T08:07:06;100708.16;;;13.33;95.97
30724;BME280;17473;52.286;20.930;2022-10-26T08:09:33;100723.78;;;13.22;96.53
30724;BME280;17473;52.286;20.930;2022-10-26T08:12:00;100725.31;;;13.14;97.39
30724;BME280;17473;52.286;20.930;2022-10-26T08:14:27;100730.72;;;13.17;97.54
30724;BME280;17473;52.286;20.930;2022-10-26T08:16:54;100727.00;;;13.12;98.10
30724;BME280;17473;52.286;20.930;2022-10-26T08:19:20;100729.19;;;12.95;99.17
30724;BME280;17473;52.286;20.930;2022-10-26T08:21:47;100721.16;;;12.93;99.35
30724;BME280;17473;52.286;20.930;2022-10-26T08:24:14;100725.88;;;13.02;99.09
30724;BME280;17473;52.286;20.930;2022-10-26T08:26:41;100727.44;;;12.95;99.06
30724;BME280;17473;52.286;20.930;2022-10-26T08:29:08;100719.16;;;12.84;99.13
30724;BME280;17473;52.286;20.930;2022-10-26T08:31:35;100716.66;;;12.89;99.14
30724;BME280;17473;52.286;20.930;2022-10-26T08:34:02;100728.53;;;12.73;100.00
30724;BME280;17473;52.286;20.930;2022-10-26T08:36:30;100735.91;;;12.83;99.62
30724;BME280;17473;52.286;20.930;2022-10-26T08:38:57;100731.06;;;12.70;99.74
30724;BME280;17473;52.286;20.930;2022-10-26T08:41:36;100735.56;;;13.02;98.33
30724;BME280;17473;52.286;20.930;2022-10-26T08:44:24;100733.44;;;12.90;98.31
30724;BME280;17473;52.286;20.930;2022-10-26T08:46:58;100737.03;;;12.92;97.86
30724;BME280;17473;52.286;20.930;2022-10-26T08:49:52;100739.72;;;12.93;96.94
30724;BME280;17473;52.286;20.930;2022-10-26T08:52:39;100740.22;;;12.80;98.78
30724;BME280;17473;52.286;20.930;2022-10-26T08:55:15;100736.34;;;12.68;100.00
30724;BME280;17473;52.286;20.930;2022-10-26T08:57:45;100746.38;;;12.79;100.00
30724;BME280;17473;52.286;20.930;2022-10-26T09:00:21;100743.16;;;12.89;99.77
30724;BME280;17473;52.286;20.930;2022-10-26T09:02:52;100749.19;;;12.85;100.00
30724;BME280;17473;52.286;20.930;2022-10-26T09:05:35;100747.53;;;12.89;100.00
30724;BME280;17473;52.286;20.930;2022-10-26T09:11:34;100760.38;;;13.05;99.67
30724;BME280;17473;52.286;20.930;2022-10-26T09:14:17;100761.16;;;13.01;100.00
30724;BME280;17473;52.286;20.930;2022-10-26T09:20:48;100768.47;;;13.10;100.00
30724;BME280;17473;52.286;20.930;2022-10-26T09:23:52;100768.56;;;13.11;100.00
30724;BME280;17473;52.286;20.930;2022-10-26T09:29:00;100762.13;;;13.34;100.00
30724;BME280;17473;52.286;20.930;2022-10-26T09:31:37;100771.28;;;13.45;99.31
30724;BME280;17473;52.286;20.930;2022-10-26T09:34:23;100776.66;;;13.46;98.37
30724;BME280;17473;52.286;20.930;2022-10-26T09:36:53;100781.56;;;13.65;97.89
30724;BME280;17473;52.286;20.930;2022-10-26T09:39:51;100785.44;;;13.44;98.45
30724;BME280;17473;52.286;20.930;2022-10-26T09:45:19;100784.28;;;13.66;96.46
30724;BME280;17473;52.286;20.930;2022-10-26T09:47:51;100789.78;;;14.07;93.84
30724;BME280;17473;52.286;20.930;2022-10-26T09:50:28;100793.72;;;13.88;94.62
30724;BME280;17473;52.286;20.930;2022-10-26T09:52:57;100793.38;;;13.76;95.95
30724;BME280;17473;52.286;20.930;2022-10-26T09:55:24;100789.66;;;13.69;96.38
30724;BME280;17473;52.286;20.930;2022-10-26T09:57:56;100791.31;;;13.66;96.85
30724;BME280;17473;52.286;20.930;2022-10-26T10:00:27;100797.41;;;13.61;97.71
30724;BME280;17473;52.286;20.930;2022-10-26T10:02:57;100789.19;;;13.52;97.94
30724;BME280;17473;52.286;20.930;2022-10-26T10:08:23;100805.31;;;13.60;97.05
30724;BME280;17473;52.286;20.930;2022-10-26T10:11:13;100803.47;;;13.89;96.06
30724;BME280;17473;52.286;20.930;2022-10-26T10:13:44;100799.06;;;13.90;95.29
30724;BME280;17473;52.286;20.930;2022-10-26T10:16:21;100789.50;;;13.97;94.49
30724;BME280;17473;52.286;20.930;2022-10-26T10:18:57;100794.03;;;14.01;93.98
30724;BME280;17473;52.286;20.930;2022-10-26T10:21:37;100787.56;;;13.89;94.10
30724;BME280;17473;52.286;20.930;2022-10-26T10:24:32;100794.72;;;13.93;94.25
30724;BME280;17473;52.286;20.930;2022-10-26T10:27:04;100793.06;;;13.99;93.99
30724;BME280;17473;52.286;20.930;2022-10-26T10:29:39;100797.78;;;14.09;93.24
30724;BME280;17473;52.286;20.930;2022-10-26T10:32:24;100784.22;;;14.33;91.08
30724;BME280;17473;52.286;20.930;2022-10-26T10:34:56;100792.63;;;14.50;90.56
30724;BME280;17473;52.286;20.930;2022-10-26T10:37:34;100791.81;;;14.54;90.20
30724;BME280;17473;52.286;20.930;2022-10-26T10:40:19;100783.94;;;14.58;91.08
30724;BME280;17473;52.286;20.930;2022-10-26T10:42:48;100786.34;;;14.85;88.98
30724;BME280;17473;52.286;20.930;2022-10-26T10:45:25;100788.03;;;14.81;89.97
30724;BME280;17473;52.286;20.930;2022-10-26T10:52:26;100776.19;;;15.05;87.17
30724;BME280;17473;52.286;20.930;2022-10-26T10:55:18;100782.31;;;15.02;87.65
30724;BME280;17473;52.286;20.930;2022-10-26T10:58:02;100778.69;;;14.99;87.58
30724;BME280;17473;52.286;20.930;2022-10-26T11:00:36;100790.25;;;15.01;87.27
30724;BME280;17473;52.286;20.930;2022-10-26T11:03:29;100794.06;;;15.12;86.73
30724;BME280;17473;52.286;20.930;2022-10-26T11:06:15;100789.78;;;15.19;86.06
30724;BME280;17473;52.286;20.930;2022-10-26T11:09:01;100798.22;;;14.99;85.97
30724;BME280;17473;52.286;20.930;2022-10-26T11:12:06;100802.91;;;15.11;86.21
30724;BME280;17473;52.286;20.930;2022-10-26T11:14:51;100806.44;;;15.12;85.29
30724;BME280;17473;52.286;20.930;2022-10-26T11:17:30;100802.25;;;15.22;85.85
30724;BME280;17473;52.286;20.930;2022-10-26T11:20:02;100803.53;;;15.42;84.90
30724;BME280;17473;52.286;20.930;2022-10-26T11:23:10;100809.00;;;15.07;86.29
30724;BME280;17473;52.286;20.930;2022-10-26T11:26:21;100803.63;;;15.04;85.96
30724;BME280;17473;52.286;20.930;2022-10-26T11:29:09;100810.88;;;15.11;85.69
30724;BME280;17473;52.286;20.930;2022-10-26T11:31:43;100806.00;;;14.92;86.57
30724;BME280;17473;52.286;20.930;2022-10-26T11:34:33;100811.81;;;15.13;86.42
30724;BME280;17473;52.286;20.930;2022-10-26T11:37:15;100807.16;;;15.03;86.80
30724;BME280;17473;52.286;20.930;2022-10-26T11:40:01;100812.25;;;14.92;86.99
30724;BME280;17473;52.286;20.930;2022-10-26T11:42:45;100811.13;;;14.84;87.58
30724;BME280;17473;52.286;20.930;2022-10-26T11:45:33;100804.34;;;14.59;88.99
30724;BME280;17473;52.286;20.930;2022-10-26T11:48:23;100818.09;;;14.77;88.04
30724;BME280;17473;52.286;20.930;2022-10-26T11:50:55;100813.75;;;14.81;87.73
30724;BME280;17473;52.286;20.930;2022-10-26T11:53:37;100818.47;;;14.94;86.92
30724;BME280;17473;52.286;20.930;2022-10-26T11:56:18;100811.44;;;14.96;86.50
30724;BME280;17473;52.286;20.930;2022-10-26T11:58:48;100810.16;;;15.18;85.67
30724;BME280;17473;52.286;20.930;2022-10-26T12:01:16;100817.00;;;15.50;84.72
30724;BME280;17473;52.286;20.930;2022-10-26T12:03:48;100829.00;;;15.74;83.41
30724;BME280;17473;52.286;20.930;2022-10-26T12:06:22;100825.09;;;15.56;83.09
30724;BME280;17473;52.286;20.930;2022-10-26T12:09:06;100831.28;;;15.54;83.05
30724;BME280;17473;52.286;20.930;2022-10-26T12:11:49;100830.75;;;15.29;84.22
30724;BME280;17473;52.286;20.930;2022-10-26T12:14:25;100832.34;;;15.21;84.45
30724;BME280;17473;52.286;20.930;2022-10-26T12:17:25;100827.88;;;15.18;85.22
30724;BME280;17473;52.286;20.930;2022-10-26T12:22:38;100831.59;;;15.26;85.31
30724;BME280;17473;52.286;20.930;2022-10-26T12:40:48;100834.56;;;15.40;84.91
30724;BME280;17473;52.286;20.930;2022-10-26T12:43:34;100839.91;;;15.42;84.19
30724;BME280;17473;52.286;20.930;2022-10-26T12:48:46;100835.69;;;15.12;86.09
30724;BME280;17473;52.286;20.930;2022-10-26T12:56:58;100834.38;;;14.91;87.53
30724;BME280;17473;52.286;20.930;2022-10-26T12:59:52;100828.84;;;14.83;88.17
30724;BME280;17473;52.286;20.930;2022-10-26T13:05:43;100837.94;;;14.93;88.47
30724;BME280;17473;52.286;20.930;2022-10-26T13:08:15;100832.56;;;14.90;88.95
30724;BME280;17473;52.286;20.930;2022-10-26T13:11:02;100835.75;;;14.75;89.14
30724;BME280;17473;52.286;20.930;2022-10-26T13:13:32;100842.25;;;14.88;88.48
30724;BME280;17473;52.286;20.930;2022-10-26T13:16:01;100837.25;;;15.02;88.23
30724;BME280;17473;52.286;20.930;2022-10-26T13:18:29;100833.78;;;15.05;88.44
30724;BME280;17473;52.286;20.930;2022-10-26T13:21:05;100836.53;;;15.09;87.52
30724;BME280;17473;52.286;20.930;2022-10-26T13:23:37;100831.19;;;15.08;87.17
30724;BME280;17473;52.286;20.930;2022-10-26T13:26:14;100839.28;;;15.12;86.44
30724;BME280;17473;52.286;20.930;2022-10-26T13:28:51;100824.81;;;14.99;86.88
30724;BME280;17473;52.286;20.930;2022-10-26T13:34:11;100833.84;;;15.08;85.46
30724;BME280;17473;52.286;20.930;2022-10-26T13:37:11;100836.31;;;15.00;85.32
30724;BME280;17473;52.286;20.930;2022-10-26T13:39:43;100833.72;;;15.01;85.28
30724;BME280;17473;52.286;20.930;2022-10-26T13:42:17;100841.06;;;15.56;82.83
30724;BME280;17473;52.286;20.930;2022-10-26T13:45:02;100836.09;;;15.29;83.00
30724;BME280;17473;52.286;20.930;2022-10-26T13:47:52;100837.47;;;15.11;83.68
30724;BME280;17473;52.286;20.930;2022-10-26T13:50:47;100838.97;;;14.98;83.88
30724;BME280;17473;52.286;20.930;2022-10-26T13:53:25;100844.63;;;15.14;82.64
30724;BME280;17473;52.286;20.930;2022-10-26T13:56:52;100844.59;;;15.12;82.01
30724;BME280;17473;52.286;20.930;2022-10-26T13:59:01;100852.69;;;15.17;81.83
30724;BME280;17473;52.286;20.930;2022-10-26T14:01:30;100842.06;;;15.18;81.84
30724;BME280;17473;52.286;20.930;2022-10-26T14:03:57;100853.63;;;15.21;82.05
30724;BME280;17473;52.286;20.930;2022-10-26T14:06:36;100845.38;;;15.08;82.20
30724;BME280;17473;52.286;20.930;2022-10-26T14:09:12;100850.53;;;15.00;82.88
30724;BME280;17473;52.286;20.930;2022-10-26T14:11:52;100844.38;;;15.03;82.75
30724;BME280;17473;52.286;20.930;2022-10-26T14:14:30;100842.25;;;14.88;82.93
30724;BME280;17473;52.286;20.930;2022-10-26T14:16:58;100839.59;;;14.88;83.01
30724;BME280;17473;52.286;20.930;2022-10-26T14:19:38;100838.72;;;14.88;83.04
30724;BME280;17473;52.286;20.930;2022-10-26T14:22:06;100839.69;;;14.91;82.52
30724;BME280;17473;52.286;20.930;2022-10-26T14:24:36;100843.94;;;14.83;82.78
30724;BME280;17473;52.286;20.930;2022-10-26T14:27:17;100851.63;;;14.72;82.80
30724;BME280;17473;52.286;20.930;2022-10-26T14:29:45;100848.91;;;14.69;83.08